• Join FlightAware (Why Join?)
  • Login
  • US Flag 
Rudolph Flight #1: Arrived! 
07:31PM EST


 

Airport Tracker/Info


-or-


 

Live Flight TrackerFlight Track Log ✈ EJA102 ✈ 26-Jun-2013 ✈ KRKD - KHYA

Flight Track Log - Related Links

Times and Time Zones

All times are in EDT time to prevent confusion due to time zone crossing. See the EJA102 flight status page for this flight to view local times or setup timezone preferences in your user account.

Time Position Orientation Groundspeed Altitude Reporting Facility
EDT Latitude Longitude Course Direction KTS MPH feet Rate Location/Type
03:34PM 43.9564 -69.0972 198° South 232 267 5,300  Level Boston Center
03:35PM 43.8803 -69.1331 199° South 251 289 7,800 2,280 Climbing Boston Center
03:36PM 43.8022 -69.1747 201° Southwest 279 321 10,400 2,220 Climbing Boston Center
03:37PM 43.7178 -69.2139 199° South 308 354 12,300 1,680 Climbing Boston Center
03:38PM 43.6275 -69.2589 200° South 333 383 13,800 840 Climbing Boston Center
03:39PM 43.5286 -69.3069 199° South 360 414 14,000 60 Climbing Boston Center
03:40PM 43.4258 -69.3608 201° Southwest 393 452 14,000  Level Boston Center
03:41PM 43.3044 -69.4186 199° South 393 452 14,000  Level Boston Center
03:42PM 43.2036 -69.4661 199° South 393 452 14,000  Level Boston Center
03:43PM 43.1047 -69.5164 200° South 388 447 14,000  Level Boston Center
03:44PM 43.0081 -69.5636 200° South 382 440 14,000  Level Boston Center
03:45PM 42.9133 -69.6106 200° South 376 433 14,000  Level Boston Center
03:46PM 42.8167 -69.6575 200° South 376 433 14,000  Level Boston Center
03:47PM 42.7197 -69.7044 200° South 371 427 14,000  Level Boston Center
03:48PM 42.6250 -69.7508 200° South 371 427 14,000  Level Boston Center
03:49PM 42.5258 -69.7975 199° South 371 427 14,000  Level Boston Center
03:50PM 42.4311 -69.8436 200° South 366 421 14,000  Level Boston Center
03:51PM 42.3342 -69.8897 199° South 366 421 14,000  Level Boston Center
03:52PM 42.2331 -69.9389 200° South 376 433 14,000 -480 Level Boston Center
03:53PM 42.1361 -69.9847 199° South 381 438 13,100 -1,200 Descending Boston Center
03:54PM 42.0289 -70.0336 199° South 381 438 11,700 -2,040 Descending Boston Center
03:55PM 41.9569 -70.0811 206° Southwest 351 404 9,100 -3,000 Descending Boston Center
03:56PM 41.8953 -70.1225 207° Southwest 296 341 5,700 -3,060 Descending Boston Center
03:57PM 41.8272 -70.1556 200° South 273 314 3,000 -1,380 Descending Boston Center
03:58PM 41.7611 -70.1858 199° South 266 306 3,000 -720 Level Boston Center
03:59PM 41.7114 -70.2097 200° South 235 270 1,600 -1,200 Descending Boston Center
04:00PM 41.6872 -70.2494 231° Southwest 167 192 700 4,680 Descending Boston Center
04:01PM 41.6692 -70.2806 232° Southwest 138 159 11,000 -300 Climbing Boston Center
04:02PM 41.6631 -70.2864 215° Southwest 94 108 100  Descending Boston Center
04:03PM 41.6628 -70.2836 98° East 61 70 11,000 5,400 Climbing Boston Center
04:04PM 41.6467 -70.3092 230° Southwest 61 70 11,000  Level Boston Center
04:05PM 41.6367 -70.3233 227° Southwest 61 70 11,000  Level Boston Center
04:06PM 41.6264 -70.3378 226° Southwest 61 70 11,000  Level Boston Center
04:08PM 41.6667 -70.2667 37° Northeast  Level FlightAware Approximate
04:15PM 41.6693 -70.2804 37° Northeast  Level Estimated
04:16PM 41.6693 -70.2804 37° Northeast  Level Estimated
04:17PM 41.6693 -70.2804 37° Northeast  Level Estimated